sensor_id;sensor_type;location;lat;lon;timestamp;temperature;humidity
29431;DHT22;16404;49.902;10.074;2023-03-31T00:02:30;14.20;65.20
29431;DHT22;16404;49.902;10.074;2023-03-31T00:05:14;14.10;65.00
29431;DHT22;16404;49.902;10.074;2023-03-31T00:08:01;14.10;65.00
29431;DHT22;16404;49.902;10.074;2023-03-31T00:10:49;14.20;65.00
29431;DHT22;16404;49.902;10.074;2023-03-31T00:13:34;14.20;64.90
29431;DHT22;16404;49.902;10.074;2023-03-31T00:16:19;14.20;64.80
29431;DHT22;16404;49.902;10.074;2023-03-31T00:19:05;14.20;65.40
29431;DHT22;16404;49.902;10.074;2023-03-31T00:21:53;14.10;64.70
29431;DHT22;16404;49.902;10.074;2023-03-31T00:24:37;14.10;64.60
29431;DHT22;16404;49.902;10.074;2023-03-31T00:27:22;14.10;64.60
29431;DHT22;16404;49.902;10.074;2023-03-31T00:30:07;14.10;64.80
29431;DHT22;16404;49.902;10.074;2023-03-31T00:32:52;14.00;64.90
29431;DHT22;16404;49.902;10.074;2023-03-31T00:35:38;14.00;65.00
29431;DHT22;16404;49.902;10.074;2023-03-31T00:38:23;14.00;65.10
29431;DHT22;16404;49.902;10.074;2023-03-31T00:41:08;14.00;64.80
29431;DHT22;16404;49.902;10.074;2023-03-31T00:49:48;13.80;65.50
29431;DHT22;16404;49.902;10.074;2023-03-31T00:52:35;13.80;65.60
29431;DHT22;16404;49.902;10.074;2023-03-31T00:55:29;13.80;65.70
29431;DHT22;16404;49.902;10.074;2023-03-31T00:58:14;13.80;65.90
29431;DHT22;16404;49.902;10.074;2023-03-31T01:01:03;13.70;66.00
29431;DHT22;16404;49.902;10.074;2023-03-31T01:03:48;13.70;66.20
29431;DHT22;16404;49.902;10.074;2023-03-31T01:06:36;13.70;66.20
29431;DHT22;16404;49.902;10.074;2023-03-31T01:09:25;13.70;66.20
29431;DHT22;16404;49.902;10.074;2023-03-31T01:12:15;13.70;66.10
29431;DHT22;16404;49.902;10.074;2023-03-31T01:15:02;13.70;66.20
29431;DHT22;16404;49.902;10.074;2023-03-31T01:17:47;13.70;66.20
29431;DHT22;16404;49.902;10.074;2023-03-31T01:45:47;13.60;67.10
29431;DHT22;16404;49.902;10.074;2023-03-31T01:52:07;13.60;67.60
29431;DHT22;16404;49.902;10.074;2023-03-31T02:00:56;13.70;67.50
29431;DHT22;16404;49.902;10.074;2023-03-31T02:03:48;13.70;67.50
29431;DHT22;16404;49.902;10.074;2023-03-31T02:06:41;13.80;67.50
29431;DHT22;16404;49.902;10.074;2023-03-31T02:09:36;13.80;67.40
29431;DHT22;16404;49.902;10.074;2023-03-31T02:12:25;13.80;67.60
29431;DHT22;16404;49.902;10.074;2023-03-31T02:15:15;13.80;67.60
29431;DHT22;16404;49.902;10.074;2023-03-31T02:18:03;13.90;67.70
29431;DHT22;16404;49.902;10.074;2023-03-31T02:20:54;13.90;67.60
29431;DHT22;16404;49.902;10.074;2023-03-31T02:23:40;13.90;67.40
29431;DHT22;16404;49.902;10.074;2023-03-31T02:26:30;13.90;67.40
29431;DHT22;16404;49.902;10.074;2023-03-31T02:29:17;13.90;67.60
29431;DHT22;16404;49.902;10.074;2023-03-31T02:34:54;13.90;67.70
29431;DHT22;16404;49.902;10.074;2023-03-31T02:37:39;13.90;67.60
29431;DHT22;16404;49.902;10.074;2023-03-31T02:40:24;13.90;67.60
29431;DHT22;16404;49.902;10.074;2023-03-31T02:43:10;13.90;67.60
29431;DHT22;16404;49.902;10.074;2023-03-31T02:45:55;13.90;67.60
29431;DHT22;16404;49.902;10.074;2023-03-31T02:48:44;13.90;67.60
29431;DHT22;16404;49.902;10.074;2023-03-31T02:58:20;14.00;67.10
29431;DHT22;16404;49.902;10.074;2023-03-31T03:07:22;14.10;66.80
29431;DHT22;16404;49.902;10.074;2023-03-31T03:10:21;14.00;66.90
29431;DHT22;16404;49.902;10.074;2023-03-31T03:13:36;14.00;67.10
29431;DHT22;16404;49.902;10.074;2023-03-31T03:16:44;13.90;67.20
29431;DHT22;16404;49.902;10.074;2023-03-31T03:19:29;14.00;67.00
29431;DHT22;16404;49.902;10.074;2023-03-31T03:22:14;14.00;67.00
29431;DHT22;16404;49.902;10.074;2023-03-31T03:24:58;13.90;67.00
29431;DHT22;16404;49.902;10.074;2023-03-31T03:27:43;13.90;67.20
29431;DHT22;16404;49.902;10.074;2023-03-31T03:30:28;13.90;67.20
29431;DHT22;16404;49.902;10.074;2023-03-31T03:33:13;14.00;67.00
29431;DHT22;16404;49.902;10.074;2023-03-31T03:35:59;14.00;67.00
29431;DHT22;16404;49.902;10.074;2023-03-31T03:38:44;13.90;66.90
29431;DHT22;16404;49.902;10.074;2023-03-31T03:41:29;14.00;67.00
29431;DHT22;16404;49.902;10.074;2023-03-31T03:44:14;13.90;66.90
29431;DHT22;16404;49.902;10.074;2023-03-31T03:46:59;14.00;66.90
29431;DHT22;16404;49.902;10.074;2023-03-31T03:49:44;13.90;66.90
29431;DHT22;16404;49.902;10.074;2023-03-31T03:52:29;14.00;66.80
29431;DHT22;16404;49.902;10.074;2023-03-31T03:55:13;14.00;66.80
29431;DHT22;16404;49.902;10.074;2023-03-31T03:57:58;14.00;66.90
29431;DHT22;16404;49.902;10.074;2023-03-31T04:00:42;14.00;66.90
29431;DHT22;16404;49.902;10.074;2023-03-31T04:03:28;14.10;66.80
29431;DHT22;16404;49.902;10.074;2023-03-31T04:06:13;14.10;66.80
29431;DHT22;16404;49.902;10.074;2023-03-31T04:08:57;14.20;66.80
29431;DHT22;16404;49.902;10.074;2023-03-31T04:11:42;14.20;66.90
29431;DHT22;16404;49.902;10.074;2023-03-31T04:14:27;14.10;67.00
29431;DHT22;16404;49.902;10.074;2023-03-31T04:17:11;14.00;67.20
29431;DHT22;16404;49.902;10.074;2023-03-31T04:19:59;14.00;67.50
29431;DHT22;16404;49.902;10.074;2023-03-31T04:22:45;13.90;67.70
29431;DHT22;16404;49.902;10.074;2023-03-31T04:25:34;13.90;68.00
29431;DHT22;16404;49.902;10.074;2023-03-31T04:28:21;14.00;68.00
29431;DHT22;16404;49.902;10.074;2023-03-31T04:31:09;14.00;67.80
29431;DHT22;16404;49.902;10.074;2023-03-31T04:33:58;14.10;67.60
29431;DHT22;16404;49.902;10.074;2023-03-31T04:36:46;14.20;67.40
29431;DHT22;16404;49.902;10.074;2023-03-31T04:39:30;14.10;67.30
29431;DHT22;16404;49.902;10.074;2023-03-31T04:42:15;14.20;67.40
29431;DHT22;16404;49.902;10.074;2023-03-31T04:45:00;14.10;67.40
29431;DHT22;16404;49.902;10.074;2023-03-31T04:47:44;14.20;67.50
29431;DHT22;16404;49.902;10.074;2023-03-31T04:50:29;14.20;67.50
29431;DHT22;16404;49.902;10.074;2023-03-31T04:53:14;14.20;67.40
29431;DHT22;16404;49.902;10.074;2023-03-31T04:55:58;14.30;67.10
29431;DHT22;16404;49.902;10.074;2023-03-31T04:58:43;14.30;66.80
29431;DHT22;16404;49.902;10.074;2023-03-31T05:01:28;14.30;66.80
29431;DHT22;16404;49.902;10.074;2023-03-31T05:04:16;14.30;66.80
29431;DHT22;16404;49.902;10.074;2023-03-31T05:07:00;14.20;66.80
29431;DHT22;16404;49.902;10.074;2023-03-31T05:09:45;14.30;66.80
29431;DHT22;16404;49.902;10.074;2023-03-31T05:12:36;14.20;66.80
29431;DHT22;16404;49.902;10.074;2023-03-31T05:15:21;14.30;66.60
29431;DHT22;16404;49.902;10.074;2023-03-31T05:18:08;14.30;66.30
29431;DHT22;16404;49.902;10.074;2023-03-31T05:20:52;14.30;66.50
29431;DHT22;16404;49.902;10.074;2023-03-31T05:23:37;14.30;66.60
29431;DHT22;16404;49.902;10.074;2023-03-31T05:26:22;14.30;66.70
29431;DHT22;16404;49.902;10.074;2023-03-31T05:29:08;14.20;66.80
29431;DHT22;16404;49.902;10.074;2023-03-31T05:31:53;14.20;66.90
29431;DHT22;16404;49.902;10.074;2023-03-31T05:34:37;14.20;66.90
29431;DHT22;16404;49.902;10.074;2023-03-31T05:37:25;14.20;66.90
29431;DHT22;16404;49.902;10.074;2023-03-31T05:40:10;14.20;67.00
29431;DHT22;16404;49.902;10.074;2023-03-31T05:42:54;14.10;66.90
29431;DHT22;16404;49.902;10.074;2023-03-31T05:45:39;14.20;66.90
29431;DHT22;16404;49.902;10.074;2023-03-31T05:48:24;14.20;67.00
29431;DHT22;16404;49.902;10.074;2023-03-31T05:51:08;14.20;67.10
29431;DHT22;16404;49.902;10.074;2023-03-31T05:53:53;14.20;66.90
29431;DHT22;16404;49.902;10.074;2023-03-31T05:56:37;14.20;66.90
29431;DHT22;16404;49.902;10.074;2023-03-31T05:59:22;14.20;66.90
29431;DHT22;16404;49.902;10.074;2023-03-31T06:02:07;14.20;66.80
29431;DHT22;16404;49.902;10.074;2023-03-31T06:04:54;14.20;66.80
29431;DHT22;16404;49.902;10.074;2023-03-31T06:07:39;14.20;66.70
29431;DHT22;16404;49.902;10.074;2023-03-31T06:10:23;14.20;66.90
29431;DHT22;16404;49.902;10.074;2023-03-31T06:13:08;14.20;67.10
29431;DHT22;16404;49.902;10.074;2023-03-31T06:15:55;14.20;67.20
29431;DHT22;16404;49.902;10.074;2023-03-31T06:18:40;14.20;67.10
29431;DHT22;16404;49.902;10.074;2023-03-31T06:21:25;14.30;67.10
29431;DHT22;16404;49.902;10.074;2023-03-31T06:24:15;14.20;67.10
29431;DHT22;16404;49.902;10.074;2023-03-31T06:27:00;14.20;67.20
29431;DHT22;16404;49.902;10.074;2023-03-31T06:29:45;14.30;67.10
29431;DHT22;16404;49.902;10.074;2023-03-31T06:32:29;14.20;67.20
29431;DHT22;16404;49.902;10.074;2023-03-31T06:35:14;14.30;67.40
29431;DHT22;16404;49.902;10.074;2023-03-31T06:37:59;14.30;67.40
29431;DHT22;16404;49.902;10.074;2023-03-31T06:40:43;14.30;67.60
29431;DHT22;16404;49.902;10.074;2023-03-31T06:43:28;14.30;67.70
29431;DHT22;16404;49.902;10.074;2023-03-31T06:46:13;14.30;67.70
29431;DHT22;16404;49.902;10.074;2023-03-31T06:48:58;14.20;67.70
29431;DHT22;16404;49.902;10.074;2023-03-31T06:51:42;14.30;68.00
29431;DHT22;16404;49.902;10.074;2023-03-31T06:54:27;14.30;68.00
29431;DHT22;16404;49.902;10.074;2023-03-31T06:57:12;14.30;68.10
29431;DHT22;16404;49.902;10.074;2023-03-31T06:59:56;14.30;68.10
29431;DHT22;16404;49.902;10.074;2023-03-31T07:02:41;14.20;68.30
29431;DHT22;16404;49.902;10.074;2023-03-31T07:05:26;14.20;68.30
29431;DHT22;16404;49.902;10.074;2023-03-31T07:08:11;14.20;68.40
29431;DHT22;16404;49.902;10.074;2023-03-31T07:10:59;14.20;68.50
29431;DHT22;16404;49.902;10.074;2023-03-31T07:13:43;14.10;68.60
29431;DHT22;16404;49.902;10.074;2023-03-31T07:16:28;14.20;68.80
29431;DHT22;16404;49.902;10.074;2023-03-31T07:19:12;14.10;68.80
29431;DHT22;16404;49.902;10.074;2023-03-31T07:21:58;14.10;69.00
29431;DHT22;16404;49.902;10.074;2023-03-31T07:24:43;14.10;69.10
29431;DHT22;16404;49.902;10.074;2023-03-31T07:27:28;14.10;69.10
29431;DHT22;16404;49.902;10.074;2023-03-31T07:30:15;14.10;69.10
29431;DHT22;16404;49.902;10.074;2023-03-31T07:33:00;14.10;69.10
29431;DHT22;16404;49.902;10.074;2023-03-31T07:35:45;14.10;69.00
29431;DHT22;16404;49.902;10.074;2023-03-31T07:38:30;14.20;69.10
29431;DHT22;16404;49.902;10.074;2023-03-31T07:41:17;14.20;69.10
29431;DHT22;16404;49.902;10.074;2023-03-31T07:44:02;14.10;69.10
29431;DHT22;16404;49.902;10.074;2023-03-31T07:46:47;14.10;69.20
29431;DHT22;16404;49.902;10.074;2023-03-31T07:49:33;14.10;69.30
29431;DHT22;16404;49.902;10.074;2023-03-31T07:52:18;14.10;69.50
29431;DHT22;16404;49.902;10.074;2023-03-31T07:55:06;14.10;69.50
29431;DHT22;16404;49.902;10.074;2023-03-31T07:58:19;14.20;69.30
29431;DHT22;16404;49.902;10.074;2023-03-31T08:06:01;14.20;69.20
29431;DHT22;16404;49.902;10.074;2023-03-31T08:10:04;14.10;69.80
29431;DHT22;16404;49.902;10.074;2023-03-31T08:12:55;14.20;69.00
29431;DHT22;16404;49.902;10.074;2023-03-31T08:15:39;14.20;69.10
29431;DHT22;16404;49.902;10.074;2023-03-31T08:18:24;14.20;69.50
29431;DHT22;16404;49.902;10.074;2023-03-31T08:21:09;14.20;69.90
29431;DHT22;16404;49.902;10.074;2023-03-31T08:23:54;14.20;70.20
29431;DHT22;16404;49.902;10.074;2023-03-31T08:26:40;14.20;70.40
29431;DHT22;16404;49.902;10.074;2023-03-31T08:29:24;14.30;70.50
29431;DHT22;16404;49.902;10.074;2023-03-31T08:32:09;14.40;70.70
29431;DHT22;16404;49.902;10.074;2023-03-31T08:34:53;14.50;70.90
29431;DHT22;16404;49.902;10.074;2023-03-31T08:37:38;14.50;70.80
29431;DHT22;16404;49.902;10.074;2023-03-31T08:40:25;14.50;70.90
29431;DHT22;16404;49.902;10.074;2023-03-31T08:43:15;14.60;71.00
29431;DHT22;16404;49.902;10.074;2023-03-31T08:46:04;14.60;70.70
29431;DHT22;16404;49.902;10.074;2023-03-31T08:48:54;14.70;70.90
29431;DHT22;16404;49.902;10.074;2023-03-31T08:51:42;14.70;70.80
29431;DHT22;16404;49.902;10.074;2023-03-31T08:54:39;14.80;70.90
29431;DHT22;16404;49.902;10.074;2023-03-31T08:58:23;14.80;70.80
29431;DHT22;16404;49.902;10.074;2023-03-31T09:08:35;14.60;70.80
29431;DHT22;16404;49.902;10.074;2023-03-31T09:12:13;14.60;71.10
29431;DHT22;16404;49.902;10.074;2023-03-31T09:17:47;14.60;71.20
29431;DHT22;16404;49.902;10.074;2023-03-31T09:20:36;14.60;71.30
29431;DHT22;16404;49.902;10.074;2023-03-31T09:23:33;14.50;70.70
29431;DHT22;16404;49.902;10.074;2023-03-31T09:26:42;14.40;71.00
29431;DHT22;16404;49.902;10.074;2023-03-31T09:29:55;14.20;70.50
29431;DHT22;16404;49.902;10.074;2023-03-31T09:32:41;13.90;70.10
29431;DHT22;16404;49.902;10.074;2023-03-31T09:35:26;13.80;70.30
29431;DHT22;16404;49.902;10.074;2023-03-31T09:38:12;13.70;70.50
29431;DHT22;16404;49.902;10.074;2023-03-31T09:40:58;13.50;70.50
29431;DHT22;16404;49.902;10.074;2023-03-31T09:43:45;13.40;70.70
29431;DHT22;16404;49.902;10.074;2023-03-31T09:46:34;13.30;71.00
29431;DHT22;16404;49.902;10.074;2023-03-31T09:49:26;13.30;71.20
29431;DHT22;16404;49.902;10.074;2023-03-31T09:52:30;13.20;71.10
29431;DHT22;16404;49.902;10.074;2023-03-31T09:58:45;13.20;71.00
29431;DHT22;16404;49.902;10.074;2023-03-31T10:01:29;13.20;70.90
29431;DHT22;16404;49.902;10.074;2023-03-31T10:04:22;13.20;70.90
29431;DHT22;16404;49.902;10.074;2023-03-31T10:07:10;13.20;70.90
29431;DHT22;16404;49.902;10.074;2023-03-31T10:09:55;13.30;71.40
29431;DHT22;16404;49.902;10.074;2023-03-31T10:12:49;13.40;71.20
29431;DHT22;16404;49.902;10.074;2023-03-31T10:15:38;13.50;71.30
29431;DHT22;16404;49.902;10.074;2023-03-31T10:18:35;13.70;71.20
29431;DHT22;16404;49.902;10.074;2023-03-31T10:21:27;13.80;71.10
29431;DHT22;16404;49.902;10.074;2023-03-31T10:24:18;13.90;71.00
29431;DHT22;16404;49.902;10.074;2023-03-31T10:27:05;14.00;70.60
29431;DHT22;16404;49.902;10.074;2023-03-31T10:29:52;14.10;70.50
29431;DHT22;16404;49.902;10.074;2023-03-31T10:32:40;14.10;70.30
29431;DHT22;16404;49.902;10.074;2023-03-31T10:35:41;14.10;70.60
29431;DHT22;16404;49.902;10.074;2023-03-31T10:38:42;14.20;70.70
29431;DHT22;16404;49.902;10.074;2023-03-31T10:41:42;14.30;70.40
29431;DHT22;16404;49.902;10.074;2023-03-31T10:44:40;14.30;70.00
29431;DHT22;16404;49.902;10.074;2023-03-31T10:47:49;14.30;69.80
29431;DHT22;16404;49.902;10.074;2023-03-31T10:51:20;14.30;70.00
29431;DHT22;16404;49.902;10.074;2023-03-31T11:00:05;14.00;68.60
29431;DHT22;16404;49.902;10.074;2023-03-31T11:03:20;13.70;68.60
29431;DHT22;16404;49.902;10.074;2023-03-31T11:09:54;13.30;67.80
29431;DHT22;16404;49.902;10.074;2023-03-31T11:12:47;13.10;67.80
29431;DHT22;16404;49.902;10.074;2023-03-31T11:18:49;12.80;68.10
29431;DHT22;16404;49.902;10.074;2023-03-31T11:44:04;13.10;68.70
29431;DHT22;16404;49.902;10.074;2023-03-31T11:47:27;13.30;68.00
29431;DHT22;16404;49.902;10.074;2023-03-31T11:59:15;13.70;68.80
29431;DHT22;16404;49.902;10.074;2023-03-31T12:20:02;14.80;67.20
29431;DHT22;16404;49.902;10.074;2023-03-31T12:23:17;14.90;67.10
29431;DHT22;16404;49.902;10.074;2023-03-31T12:29:55;15.00;66.30
29431;DHT22;16404;49.902;10.074;2023-03-31T12:39:21;15.10;64.20
29431;DHT22;16404;49.902;10.074;2023-03-31T12:45:30;14.90;63.40
29431;DHT22;16404;49.902;10.074;2023-03-31T12:48:46;14.90;63.40
29431;DHT22;16404;49.902;10.074;2023-03-31T12:55:16;15.10;63.00
29431;DHT22;16404;49.902;10.074;2023-03-31T13:01:24;15.10;62.80
29431;DHT22;16404;49.902;10.074;2023-03-31T13:04:20;15.30;62.70
29431;DHT22;16404;49.902;10.074;2023-03-31T13:07:12;15.30;62.00
29431;DHT22;16404;49.902;10.074;2023-03-31T13:10:28;15.50;62.30
29431;DHT22;16404;49.902;10.074;2023-03-31T13:13:18;15.60;61.60
29431;DHT22;16404;49.902;10.074;2023-03-31T13:16:07;15.60;61.70
29431;DHT22;16404;49.902;10.074;2023-03-31T13:18:52;15.70;61.60
29431;DHT22;16404;49.902;10.074;2023-03-31T13:21:56;15.70;61.50
29431;DHT22;16404;49.902;10.074;2023-03-31T13:24:41;15.80;60.40
29431;DHT22;16404;49.902;10.074;2023-03-31T13:27:32;15.80;59.80
29431;DHT22;16404;49.902;10.074;2023-03-31T13:39:50;16.10;60.10
29431;DHT22;16404;49.902;10.074;2023-03-31T13:49:43;16.50;59.90
29431;DHT22;16404;49.902;10.074;2023-03-31T13:52:46;16.70;58.80
29431;DHT22;16404;49.902;10.074;2023-03-31T13:59:12;17.00;59.10
29431;DHT22;16404;49.902;10.074;2023-03-31T14:02:26;17.10;58.40
29431;DHT22;16404;49.902;10.074;2023-03-31T14:08:09;17.20;57.30
29431;DHT22;16404;49.902;10.074;2023-03-31T14:11:24;17.20;56.60
29431;DHT22;16404;49.902;10.074;2023-03-31T14:14:17;17.20;56.40
29431;DHT22;16404;49.902;10.074;2023-03-31T14:17:02;17.20;56.50
29431;DHT22;16404;49.902;10.074;2023-03-31T14:20:26;17.20;56.10
29431;DHT22;16404;49.902;10.074;2023-03-31T14:30:06;17.10;55.80
29431;DHT22;16404;49.902;10.074;2023-03-31T14:36:22;17.30;55.90
29431;DHT22;16404;49.902;10.074;2023-03-31T14:39:10;17.30;55.20
29431;DHT22;16404;49.902;10.074;2023-03-31T14:41:59;17.30;54.70
29431;DHT22;16404;49.902;10.074;2023-03-31T14:44:44;17.20;55.50
29431;DHT22;16404;49.902;10.074;2023-03-31T14:47:30;17.20;54.90
29431;DHT22;16404;49.902;10.074;2023-03-31T14:50:17;17.10;54.70
29431;DHT22;16404;49.902;10.074;2023-03-31T14:53:02;17.00;55.10
29431;DHT22;16404;49.902;10.074;2023-03-31T14:55:48;17.00;55.20
29431;DHT22;16404;49.902;10.074;2023-03-31T14:58:39;17.00;54.90
29431;DHT22;16404;49.902;10.074;2023-03-31T15:01:28;17.00;54.90
29431;DHT22;16404;49.902;10.074;2023-03-31T15:04:22;17.00;55.50
29431;DHT22;16404;49.902;10.074;2023-03-31T15:07:09;16.90;56.30
29431;DHT22;16404;49.902;10.074;2023-03-31T15:09:54;16.80;57.00
29431;DHT22;16404;49.902;10.074;2023-03-31T15:12:39;16.80;57.90
29431;DHT22;16404;49.902;10.074;2023-03-31T15:15:25;16.60;58.40
29431;DHT22;16404;49.902;10.074;2023-03-31T15:18:12;16.60;58.90
29431;DHT22;16404;49.902;10.074;2023-03-31T15:20:58;16.50;59.00
29431;DHT22;16404;49.902;10.074;2023-03-31T15:23:42;16.40;59.30
29431;DHT22;16404;49.902;10.074;2023-03-31T15:26:31;16.40;59.20
29431;DHT22;16404;49.902;10.074;2023-03-31T15:29:24;16.30;59.20
29431;DHT22;16404;49.902;10.074;2023-03-31T15:32:29;16.30;59.70
29431;DHT22;16404;49.902;10.074;2023-03-31T15:35:25;16.30;60.30
29431;DHT22;16404;49.902;10.074;2023-03-31T15:38:11;16.40;61.10
29431;DHT22;16404;49.902;10.074;2023-03-31T15:41:00;16.40;60.60
29431;DHT22;16404;49.902;10.074;2023-03-31T15:43:49;16.50;61.40
29431;DHT22;16404;49.902;10.074;2023-03-31T15:46:58;16.50;61.60
29431;DHT22;16404;49.902;10.074;2023-03-31T16:30:36;12.00;64.20
29431;DHT22;16404;49.902;10.074;2023-03-31T16:33:22;14.10;64.70
29431;DHT22;16404;49.902;10.074;2023-03-31T16:36:07;14.20;64.60
29431;DHT22;16404;49.902;10.074;2023-03-31T16:38:56;14.30;64.90
29431;DHT22;16404;49.902;10.074;2023-03-31T16:41:42;14.20;64.50
29431;DHT22;16404;49.902;10.074;2023-03-31T16:44:27;14.00;64.20
29431;DHT22;16404;49.902;10.074;2023-03-31T16:47:14;13.80;64.80
29431;DHT22;16404;49.902;10.074;2023-03-31T16:50:00;13.70;65.00
29431;DHT22;16404;49.902;10.074;2023-03-31T16:52:44;13.70;65.30
29431;DHT22;16404;49.902;10.074;2023-03-31T16:55:30;13.60;65.70
29431;DHT22;16404;49.902;10.074;2023-03-31T16:58:15;13.60;66.00
29431;DHT22;16404;49.902;10.074;2023-03-31T17:01:01;13.70;65.70
29431;DHT22;16404;49.902;10.074;2023-03-31T17:03:47;13.70;65.60
29431;DHT22;16404;49.902;10.074;2023-03-31T17:06:31;13.60;66.00
29431;DHT22;16404;49.902;10.074;2023-03-31T17:09:16;13.60;66.00
29431;DHT22;16404;49.902;10.074;2023-03-31T17:12:00;13.60;66.00
29431;DHT22;16404;49.902;10.074;2023-03-31T17:14:45;13.70;66.00
29431;DHT22;16404;49.902;10.074;2023-03-31T17:17:30;13.60;66.00
29431;DHT22;16404;49.902;10.074;2023-03-31T17:20:14;13.60;66.00
29431;DHT22;16404;49.902;10.074;2023-03-31T17:22:59;13.60;65.90
29431;DHT22;16404;49.902;10.074;2023-03-31T17:25:48;13.60;65.90
29431;DHT22;16404;49.902;10.074;2023-03-31T17:28:33;13.60;66.00
29431;DHT22;16404;49.902;10.074;2023-03-31T17:31:19;13.60;66.00
29431;DHT22;16404;49.902;10.074;2023-03-31T17:34:04;13.70;66.10
29431;DHT22;16404;49.902;10.074;2023-03-31T17:36:49;13.70;65.90
29431;DHT22;16404;49.902;10.074;2023-03-31T17:39:34;13.70;65.90
29431;DHT22;16404;49.902;10.074;2023-03-31T17:42:19;13.70;66.20
29431;DHT22;16404;49.902;10.074;2023-03-31T17:45:04;13.60;66.50
29431;DHT22;16404;49.902;10.074;2023-03-31T17:47:49;13.60;66.70
29431;DHT22;16404;49.902;10.074;2023-03-31T17:50:35;13.50;66.90
29431;DHT22;16404;49.902;10.074;2023-03-31T17:53:20;13.50;67.30
29431;DHT22;16404;49.902;10.074;2023-03-31T17:56:05;13.40;67.50
29431;DHT22;16404;49.902;10.074;2023-03-31T17:58:49;13.30;67.80
29431;DHT22;16404;49.902;10.074;2023-03-31T18:01:34;13.30;68.10
29431;DHT22;16404;49.902;10.074;2023-03-31T18:04:18;13.30;68.30
29431;DHT22;16404;49.902;10.074;2023-03-31T18:07:03;13.30;68.40
29431;DHT22;16404;49.902;10.074;2023-03-31T18:09:48;13.30;68.50
29431;DHT22;16404;49.902;10.074;2023-03-31T18:12:34;13.30;68.30
29431;DHT22;16404;49.902;10.074;2023-03-31T18:15:20;13.30;68.30
29431;DHT22;16404;49.902;10.074;2023-03-31T18:21:32;13.20;68.80
29431;DHT22;16404;49.902;10.074;2023-03-31T18:24:18;13.10;68.90
29431;DHT22;16404;49.902;10.074;2023-03-31T18:27:04;13.10;69.20
29431;DHT22;16404;49.902;10.074;2023-03-31T18:29:48;13.10;69.40
29431;DHT22;16404;49.902;10.074;2023-03-31T18:32:33;13.10;69.50
29431;DHT22;16404;49.902;10.074;2023-03-31T18:35:18;13.10;69.60
29431;DHT22;16404;49.902;10.074;2023-03-31T18:38:03;13.10;69.60
29431;DHT22;16404;49.902;10.074;2023-03-31T18:40:49;13.10;69.60
29431;DHT22;16404;49.902;10.074;2023-03-31T18:43:33;13.10;69.70
29431;DHT22;16404;49.902;10.074;2023-03-31T18:46:18;13.10;69.70
29431;DHT22;16404;49.902;10.074;2023-03-31T18:49:03;13.20;69.70
29431;DHT22;16404;49.902;10.074;2023-03-31T18:51:47;13.20;69.50
29431;DHT22;16404;49.902;10.074;2023-03-31T18:54:32;13.20;69.50
29431;DHT22;16404;49.902;10.074;2023-03-31T18:57:17;13.20;69.40
29431;DHT22;16404;49.902;10.074;2023-03-31T19:00:01;13.20;69.30
29431;DHT22;16404;49.902;10.074;2023-03-31T19:02:47;13.10;69.30
29431;DHT22;16404;49.902;10.074;2023-03-31T19:05:32;13.10;69.20
29431;DHT22;16404;49.902;10.074;2023-03-31T19:08:17;13.10;69.20
29431;DHT22;16404;49.902;10.074;2023-03-31T19:11:09;13.00;69.10
29431;DHT22;16404;49.902;10.074;2023-03-31T19:13:55;13.00;69.20
29431;DHT22;16404;49.902;10.074;2023-03-31T19:16:39;13.00;69.10
29431;DHT22;16404;49.902;10.074;2023-03-31T19:19:27;13.00;69.10
29431;DHT22;16404;49.902;10.074;2023-03-31T19:22:11;13.10;69.00
29431;DHT22;16404;49.902;10.074;2023-03-31T19:24:56;13.10;68.70
29431;DHT22;16404;49.902;10.074;2023-03-31T19:27:41;13.10;68.60
29431;DHT22;16404;49.902;10.074;2023-03-31T19:30:25;13.10;68.50
29431;DHT22;16404;49.902;10.074;2023-03-31T19:33:11;13.20;68.50
29431;DHT22;16404;49.902;10.074;2023-03-31T19:35:56;13.10;68.30
29431;DHT22;16404;49.902;10.074;2023-03-31T19:38:41;13.00;68.40
29431;DHT22;16404;49.902;10.074;2023-03-31T19:41:26;13.00;68.40
29431;DHT22;16404;49.902;10.074;2023-03-31T19:44:10;13.00;68.40
29431;DHT22;16404;49.902;10.074;2023-03-31T19:46:54;13.00;68.20
29431;DHT22;16404;49.902;10.074;2023-03-31T19:49:41;12.90;68.10
29431;DHT22;16404;49.902;10.074;2023-03-31T19:52:27;12.90;68.30
29431;DHT22;16404;49.902;10.074;2023-03-31T19:55:13;12.80;68.40
29431;DHT22;16404;49.902;10.074;2023-03-31T19:57:57;12.80;68.50
29431;DHT22;16404;49.902;10.074;2023-03-31T20:00:41;12.80;68.50
29431;DHT22;16404;49.902;10.074;2023-03-31T20:03:26;12.70;68.50
29431;DHT22;16404;49.902;10.074;2023-03-31T20:06:13;12.70;68.80
29431;DHT22;16404;49.902;10.074;2023-03-31T20:08:59;12.70;69.00
29431;DHT22;16404;49.902;10.074;2023-03-31T20:11:44;12.70;69.10
29431;DHT22;16404;49.902;10.074;2023-03-31T20:14:29;12.80;69.10
29431;DHT22;16404;49.902;10.074;2023-03-31T20:17:14;12.70;69.10
29431;DHT22;16404;49.902;10.074;2023-03-31T20:19:58;12.80;69.30
29431;DHT22;16404;49.902;10.074;2023-03-31T20:22:43;12.80;69.20
29431;DHT22;16404;49.902;10.074;2023-03-31T20:25:29;12.80;69.10
29431;DHT22;16404;49.902;10.074;2023-03-31T20:28:14;12.90;68.90
29431;DHT22;16404;49.902;10.074;2023-03-31T20:30:59;12.80;68.80
29431;DHT22;16404;49.902;10.074;2023-03-31T20:33:43;12.80;68.70
29431;DHT22;16404;49.902;10.074;2023-03-31T20:36:29;12.80;68.70
29431;DHT22;16404;49.902;10.074;2023-03-31T20:39:15;12.60;68.60
29431;DHT22;16404;49.902;10.074;2023-03-31T20:41:59;12.60;68.80
29431;DHT22;16404;49.902;10.074;2023-03-31T20:44:44;12.60;68.80
29431;DHT22;16404;49.902;10.074;2023-03-31T20:47:29;12.60;68.70
29431;DHT22;16404;49.902;10.074;2023-03-31T20:50:16;12.60;68.50
29431;DHT22;16404;49.902;10.074;2023-03-31T20:53:01;12.50;69.40
29431;DHT22;16404;49.902;10.074;2023-03-31T20:55:45;12.50;68.70
29431;DHT22;16404;49.902;10.074;2023-03-31T20:58:30;12.50;68.70
29431;DHT22;16404;49.902;10.074;2023-03-31T21:01:16;12.50;68.80
29431;DHT22;16404;49.902;10.074;2023-03-31T21:04:05;12.50;68.90
29431;DHT22;16404;49.902;10.074;2023-03-31T21:06:50;12.50;68.80
29431;DHT22;16404;49.902;10.074;2023-03-31T21:09:35;12.40;68.90
29431;DHT22;16404;49.902;10.074;2023-03-31T21:12:19;12.30;68.90
29431;DHT22;16404;49.902;10.074;2023-03-31T21:15:04;12.30;69.10
29431;DHT22;16404;49.902;10.074;2023-03-31T21:17:49;12.30;69.20
29431;DHT22;16404;49.902;10.074;2023-03-31T21:20:34;12.30;69.10
29431;DHT22;16404;49.902;10.074;2023-03-31T21:23:19;12.30;69.10